createdAt,value
2018-11-01T00:00:20.848Z,0
2018-11-01T00:01:29.748Z,0
2018-11-01T00:02:38.393Z,0
2018-11-01T00:03:47.031Z,0
2018-11-01T00:04:55.671Z,0
2018-11-01T00:06:04.314Z,0
2018-11-01T00:07:12.951Z,0
2018-11-01T00:08:21.590Z,0
2018-11-01T00:09:30.228Z,0
2018-11-01T00:10:39.136Z,0
2018-11-01T00:11:47.771Z,0
2018-11-01T00:12:56.413Z,0
2018-11-01T00:14:05.057Z,0
2018-11-01T00:15:13.705Z,0
2018-11-01T00:16:22.887Z,0
2018-11-01T00:17:31.522Z,0
2018-11-01T00:18:40.154Z,0
2018-11-01T00:19:48.802Z,0
2018-11-01T00:20:57.435Z,0
2018-11-01T00:22:06.348Z,0
2018-11-01T00:23:14.989Z,0
2018-11-01T00:24:24.171Z,0
2018-11-01T00:25:33.087Z,0
2018-11-01T00:26:41.722Z,0
2018-11-01T00:27:50.636Z,0
2018-11-01T00:28:59.550Z,0
2018-11-01T00:30:08.198Z,0
2018-11-01T00:31:16.841Z,0
2018-11-01T00:32:25.483Z,0
2018-11-01T00:33:34.119Z,0
2018-11-01T00:34:42.763Z,0
2018-11-01T00:35:51.400Z,0
2018-11-01T00:37:00.043Z,0
2018-11-01T00:38:08.943Z,0
2018-11-01T00:39:17.585Z,0
2018-11-01T00:40:26.772Z,0
2018-11-01T00:41:35.414Z,0
2018-11-01T00:42:44.055Z,0
2018-11-01T00:43:52.690Z,0
2018-11-01T00:45:01.335Z,0
2018-11-01T00:46:09.974Z,0
2018-11-01T00:47:18.611Z,0
2018-11-01T00:48:27.258Z,0
2018-11-01T00:49:35.894Z,0
2018-11-01T00:50:44.536Z,0
2018-11-01T00:51:53.172Z,0
2018-11-01T00:53:01.816Z,0
2018-11-01T00:54:10.453Z,0
2018-11-01T00:55:19.094Z,0
2018-11-01T00:56:27.989Z,0
2018-11-01T00:57:36.635Z,0
2018-11-01T00:58:45.274Z,0
2018-11-01T00:59:53.915Z,0
2018-11-01T01:01:02.559Z,0
2018-11-01T01:02:11.462Z,0
2018-11-01T01:03:20.631Z,0
2018-11-01T01:04:29.270Z,0
2018-11-01T01:05:38.172Z,0
2018-11-01T01:06:46.808Z,0
2018-11-01T01:07:55.446Z,0
2018-11-01T01:09:04.086Z,0
2018-11-01T01:10:12.732Z,0
2018-11-01T01:11:21.639Z,0
2018-11-01T01:12:30.278Z,0
2018-11-01T01:13:38.915Z,0
2018-11-01T01:14:47.561Z,0
2018-11-01T01:15:56.469Z,0
2018-11-01T01:17:05.109Z,0
2018-11-01T01:18:14.009Z,0
2018-11-01T01:19:22.648Z,0
2018-11-01T01:20:31.295Z,0
2018-11-01T01:21:39.940Z,0
2018-11-01T01:22:48.845Z,0
2018-11-01T01:23:57.479Z,0
2018-11-01T01:25:06.122Z,0
2018-11-01T01:26:14.763Z,0
2018-11-01T01:27:23.502Z,0
2018-11-01T01:28:32.048Z,0
2018-11-01T01:29:40.690Z,0
2018-11-01T01:30:49.328Z,0
2018-11-01T01:31:57.968Z,0
2018-11-01T01:33:06.605Z,0
2018-11-01T01:34:15.248Z,0
2018-11-01T01:35:23.886Z,0
2018-11-01T01:36:32.527Z,0
2018-11-01T01:37:41.171Z,0
2018-11-01T01:38:49.803Z,0
2018-11-01T01:39:58.440Z,0
2018-11-01T01:41:07.084Z,0
2018-11-01T01:42:15.728Z,0
2018-11-01T01:43:24.361Z,0
2018-11-01T01:44:33.003Z,0
2018-11-01T01:45:41.638Z,0
2018-11-01T01:46:50.288Z,0
2018-11-01T01:47:58.919Z,0
2018-11-01T01:49:07.562Z,0
2018-11-01T01:50:16.238Z,0
2018-11-01T01:51:24.845Z,0
2018-11-01T01:52:33.481Z,0
2018-11-01T01:53:42.117Z,0
2018-11-01T01:54:50.755Z,0
2018-11-01T01:55:59.659Z,0
2018-11-01T01:57:08.593Z,0
2018-11-01T01:58:17.230Z,0
2018-11-01T01:59:26.140Z,0
2018-11-01T02:00:34.768Z,0
2018-11-01T02:01:43.414Z,0
2018-11-01T02:02:52.051Z,0
2018-11-01T02:04:00.693Z,0
2018-11-01T02:05:09.323Z,0
2018-11-01T02:06:17.975Z,0
2018-11-01T02:07:26.611Z,0
2018-11-01T02:08:35.252Z,0
2018-11-01T02:09:43.882Z,0
2018-11-01T02:10:52.521Z,0
2018-11-01T02:12:01.167Z,0
2018-11-01T02:13:09.816Z,0
2018-11-01T02:14:18.458Z,0
2018-11-01T02:15:27.087Z,0
2018-11-01T02:16:35.730Z,0
2018-11-01T02:17:44.644Z,0
2018-11-01T02:18:53.290Z,0
2018-11-01T02:20:02.174Z,0
2018-11-01T02:21:10.820Z,0
2018-11-01T02:22:19.460Z,0
2018-11-01T02:23:28.106Z,0
2018-11-01T02:24:36.738Z,0
2018-11-01T02:25:45.380Z,0
2018-11-01T02:26:54.015Z,0
2018-11-01T02:28:02.665Z,0
2018-11-01T02:29:11.572Z,0
2018-11-01T02:30:21.001Z,0
2018-11-01T02:31:29.928Z,0
2018-11-01T02:32:38.544Z,0
2018-11-01T02:33:47.194Z,0
2018-11-01T02:34:55.837Z,0
2018-11-01T02:36:04.481Z,0
2018-11-01T02:37:13.120Z,0
2018-11-01T02:38:22.140Z,0
2018-11-01T02:39:30.749Z,0
2018-11-01T02:40:39.641Z,0
2018-11-01T02:41:48.274Z,0
2018-11-01T02:42:57.444Z,0
2018-11-01T02:44:06.093Z,0
2018-11-01T02:45:14.737Z,0
2018-11-01T02:46:23.373Z,0
2018-11-01T02:47:32.291Z,0
2018-11-01T02:48:40.931Z,0
2018-11-01T02:49:49.574Z,0
2018-11-01T02:50:58.224Z,0
2018-11-01T02:52:06.862Z,0
2018-11-01T02:53:15.503Z,0
2018-11-01T02:54:24.147Z,0
2018-11-01T02:55:32.792Z,0
2018-11-01T02:56:41.426Z,0
2018-11-01T02:57:50.071Z,0
2018-11-01T02:58:58.710Z,0
2018-11-01T03:00:07.359Z,0
2018-11-01T03:01:15.997Z,0
2018-11-01T03:02:24.899Z,0
2018-11-01T03:03:33.544Z,0
2018-11-01T03:04:42.194Z,0
2018-11-01T03:05:50.832Z,0
2018-11-01T03:06:59.470Z,0
2018-11-01T03:08:08.107Z,0
2018-11-01T03:09:16.749Z,0
2018-11-01T03:10:25.396Z,0
2018-11-01T03:11:34.039Z,0
2018-11-01T03:12:42.699Z,0
2018-11-01T03:13:51.601Z,0
2018-11-01T03:15:00.245Z,0
2018-11-01T03:16:09.149Z,0
2018-11-01T03:17:17.860Z,0
2018-11-01T03:18:26.432Z,0
2018-11-01T03:19:35.335Z,0
2018-11-01T03:20:44.240Z,0
2018-11-01T03:21:52.889Z,0
2018-11-01T03:23:01.529Z,0
2018-11-01T03:24:10.175Z,0
2018-11-01T03:25:19.086Z,0
2018-11-01T03:26:27.841Z,0
2018-11-01T03:27:36.376Z,0
2018-11-01T03:28:45.015Z,0
2018-11-01T03:29:53.922Z,0
2018-11-01T03:31:02.571Z,0
2018-11-01T03:32:12.021Z,0
2018-11-01T03:33:20.931Z,0
2018-11-01T03:34:29.572Z,0
2018-11-01T03:35:38.538Z,0
2018-11-01T03:36:47.124Z,0
2018-11-01T03:37:55.788Z,0
2018-11-01T03:39:04.981Z,0
2018-11-01T03:40:13.433Z,0
2018-11-01T03:41:22.081Z,0
2018-11-01T03:42:30.718Z,0
2018-11-01T03:43:39.358Z,0
2018-11-01T03:44:47.994Z,0
2018-11-01T03:45:56.635Z,0
2018-11-01T03:47:05.571Z,0
2018-11-01T03:48:14.204Z,0
2018-11-01T03:49:22.849Z,0
2018-11-01T03:50:31.484Z,0
2018-11-01T03:51:40.171Z,0
2018-11-01T03:52:48.766Z,0
2018-11-01T03:53:57.838Z,0
2018-11-01T03:55:07.054Z,0
2018-11-01T03:56:15.975Z,0
2018-11-01T03:57:24.617Z,0
2018-11-01T03:58:33.264Z,0
2018-11-01T03:59:42.159Z,0
2018-11-01T04:00:50.799Z,0
2018-11-01T04:01:59.444Z,0
2018-11-01T04:03:08.085Z,0
2018-11-01T04:04:16.996Z,0
2018-11-01T04:05:25.895Z,0
2018-11-01T04:06:34.538Z,0
2018-11-01T04:07:43.446Z,0
2018-11-01T04:08:52.088Z,0
2018-11-01T04:10:00.727Z,0
2018-11-01T04:11:10.172Z,0
2018-11-01T04:12:18.810Z,0
2018-11-01T04:13:27.512Z,0
2018-11-01T04:14:36.357Z,0
2018-11-01T04:15:44.999Z,0
2018-11-01T04:16:53.710Z,0
2018-11-01T04:18:02.284Z,0
2018-11-01T04:19:11.455Z,0
2018-11-01T04:20:20.092Z,0
2018-11-01T04:21:28.726Z,0
2018-11-01T04:22:37.636Z,0
2018-11-01T04:23:46.558Z,0
2018-11-01T04:24:55.196Z,0
2018-11-01T04:26:04.114Z,0
2018-11-01T04:27:12.806Z,0
2018-11-01T04:28:21.397Z,0
2018-11-01T04:29:30.549Z,0
2018-11-01T04:30:39.454Z,0
2018-11-01T04:31:48.085Z,0
2018-11-01T04:32:57.064Z,0
2018-11-01T04:34:05.930Z,0
2018-11-01T04:35:14.844Z,0
2018-11-01T04:36:23.493Z,0
2018-11-01T04:37:32.114Z,0
2018-11-01T04:38:41.036Z,0
2018-11-01T04:39:49.672Z,0
2018-11-01T04:40:58.307Z,0
2018-11-01T04:42:06.958Z,0
2018-11-01T04:43:15.900Z,0
2018-11-01T04:44:25.248Z,0
2018-11-01T04:45:33.811Z,0
2018-11-01T04:46:42.469Z,0
2018-11-01T04:47:51.147Z,0
2018-11-01T04:48:59.736Z,0
2018-11-01T04:50:08.363Z,0
2018-11-01T04:51:17.008Z,0
2018-11-01T04:52:25.646Z,0
2018-11-01T04:53:34.288Z,0
2018-11-01T04:54:42.917Z,0
2018-11-01T04:55:51.823Z,0
2018-11-01T04:57:00.466Z,0
2018-11-01T04:58:09.108Z,0
2018-11-01T04:59:17.747Z,0
2018-11-01T05:00:26.383Z,0
2018-11-01T05:01:35.295Z,0
2018-11-01T05:02:43.931Z,0
2018-11-01T05:03:52.578Z,0
2018-11-01T05:05:01.678Z,0
2018-11-01T05:06:10.159Z,0
2018-11-01T05:07:18.791Z,0
2018-11-01T05:08:27.439Z,0
2018-11-01T05:09:36.069Z,0
2018-11-01T05:10:44.713Z,0
2018-11-01T05:11:53.364Z,0
2018-11-01T05:13:02.360Z,0
2018-11-01T05:14:11.275Z,0
2018-11-01T05:15:20.013Z,0
2018-11-01T05:16:28.545Z,0
2018-11-01T05:17:37.183Z,0
2018-11-01T05:18:45.829Z,0
2018-11-01T05:19:54.464Z,0
2018-11-01T05:21:03.106Z,0
2018-11-01T05:22:11.735Z,0
2018-11-01T05:23:20.383Z,0
2018-11-01T05:24:29.017Z,0
2018-11-01T05:25:37.943Z,0
2018-11-01T05:26:46.556Z,0
2018-11-01T05:27:55.201Z,0
2018-11-01T05:29:03.838Z,0
2018-11-01T05:30:12.479Z,0
2018-11-01T05:31:21.109Z,0
2018-11-01T05:32:29.750Z,0
2018-11-01T05:33:38.391Z,0
2018-11-01T05:34:47.031Z,0
2018-11-01T05:35:55.945Z,0
2018-11-01T05:37:04.573Z,0
2018-11-01T05:38:13.214Z,0
2018-11-01T05:39:21.855Z,0
2018-11-01T05:40:30.761Z,0
2018-11-01T05:41:39.659Z,0
2018-11-01T05:42:48.298Z,0
2018-11-01T05:43:57.199Z,0
2018-11-01T05:45:05.841Z,0
2018-11-01T05:46:14.470Z,0
2018-11-01T05:47:23.110Z,0
2018-11-01T05:48:31.749Z,0
2018-11-01T05:49:40.653Z,0
2018-11-01T05:50:49.293Z,0
2018-11-01T05:51:57.937Z,0
2018-11-01T05:53:06.838Z,0
2018-11-01T05:54:15.473Z,0
2018-11-01T05:55:24.119Z,0
2018-11-01T05:56:32.759Z,0
2018-11-01T05:57:41.396Z,0
2018-11-01T05:58:50.030Z,0
2018-11-01T05:59:58.809Z,0
2018-11-01T06:01:07.314Z,0
2018-11-01T06:02:15.954Z,0
2018-11-01T06:03:24.585Z,0
2018-11-01T06:04:33.498Z,0
2018-11-01T06:05:42.206Z,0
2018-11-01T06:06:50.775Z,0
2018-11-01T06:07:59.947Z,0
2018-11-01T06:09:08.854Z,0
2018-11-01T06:10:17.497Z,0
2018-11-01T06:11:26.137Z,0
2018-11-01T06:12:34.885Z,0
2018-11-01T06:13:43.418Z,0
2018-11-01T06:14:52.309Z,0
2018-11-01T06:16:00.947Z,0
2018-11-01T06:17:09.592Z,0
2018-11-01T06:18:18.233Z,0
2018-11-01T06:19:26.877Z,0
2018-11-01T06:20:35.800Z,0
2018-11-01T06:21:44.432Z,0
2018-11-01T06:22:53.065Z,0
2018-11-01T06:24:01.707Z,5
2018-11-01T06:25:10.618Z,5
2018-11-01T06:26:19.260Z,5
2018-11-01T06:27:27.896Z,5
2018-11-01T06:28:36.535Z,5
2018-11-01T06:29:45.171Z,5
2018-11-01T06:30:54.070Z,5
2018-11-01T06:32:02.715Z,5
2018-11-01T06:33:11.613Z,5
2018-11-01T06:34:20.251Z,5
2018-11-01T06:35:28.880Z,10
2018-11-01T06:36:37.522Z,10
2018-11-01T06:37:46.215Z,10
2018-11-01T06:38:55.064Z,10
2018-11-01T06:40:03.703Z,10
2018-11-01T06:41:12.603Z,10
2018-11-01T06:42:21.247Z,10
2018-11-01T06:43:29.888Z,10
2018-11-01T06:44:38.532Z,15
2018-11-01T06:45:47.425Z,15
2018-11-01T06:46:56.063Z,15
2018-11-01T06:48:04.704Z,15
2018-11-01T06:49:13.343Z,15
2018-11-01T06:50:22.032Z,15
2018-11-01T06:51:30.618Z,15
2018-11-01T06:52:39.635Z,20
2018-11-01T06:53:48.276Z,20
2018-11-01T06:54:56.907Z,20
2018-11-01T06:56:05.546Z,20
2018-11-01T06:57:14.452Z,20
2018-11-01T06:58:23.575Z,20
2018-11-01T06:59:32.679Z,20
2018-11-01T07:00:41.512Z,20
2018-11-01T07:01:50.149Z,25
2018-11-01T07:02:58.791Z,25
2018-11-01T07:04:07.427Z,25
2018-11-01T07:05:16.331Z,25
2018-11-01T07:06:24.965Z,25
2018-11-01T07:07:33.601Z,25
2018-11-01T07:08:42.244Z,30
2018-11-01T07:09:50.890Z,30
2018-11-01T07:10:59.526Z,30
2018-11-01T07:12:08.166Z,30
2018-11-01T07:13:16.806Z,30
2018-11-01T07:14:25.445Z,30
2018-11-01T07:15:34.084Z,30
2018-11-01T07:16:42.720Z,30
2018-11-01T07:17:51.360Z,35
2018-11-01T07:19:00.005Z,35
2018-11-01T07:20:08.653Z,35
2018-11-01T07:21:17.285Z,35
2018-11-01T07:22:25.923Z,35
2018-11-01T07:23:34.563Z,35
2018-11-01T07:24:43.202Z,35
2018-11-01T07:25:52.308Z,35
2018-11-01T07:27:00.821Z,35
2018-11-01T07:28:09.721Z,35
2018-11-01T07:29:18.619Z,40
2018-11-01T07:30:27.263Z,40
2018-11-01T07:31:36.159Z,40
2018-11-01T07:32:45.689Z,40
2018-11-01T07:33:54.124Z,45
2018-11-01T07:35:03.035Z,45
2018-11-01T07:36:11.931Z,45
2018-11-01T07:37:20.827Z,50
2018-11-01T07:38:29.466Z,50
2018-11-01T07:39:38.112Z,55
2018-11-01T07:40:46.748Z,55
2018-11-01T07:41:55.382Z,55
2018-11-01T07:43:04.018Z,60
2018-11-01T07:44:12.652Z,65
2018-11-01T07:45:21.301Z,70
2018-11-01T07:46:30.195Z,70
2018-11-01T07:47:38.837Z,80
2018-11-01T07:48:47.472Z,80
2018-11-01T07:49:56.374Z,80
2018-11-01T07:51:05.008Z,85
2018-11-01T07:52:13.649Z,85
2018-11-01T07:53:22.541Z,85
2018-11-01T07:54:31.453Z,85
2018-11-01T07:55:40.088Z,85
2018-11-01T07:56:48.728Z,85
2018-11-01T07:57:57.360Z,85
2018-11-01T07:59:06.004Z,85
2018-11-01T08:00:14.648Z,85
2018-11-01T08:01:23.288Z,90
2018-11-01T08:02:31.929Z,85
2018-11-01T08:03:40.559Z,85
2018-11-01T08:04:49.205Z,90
2018-11-01T08:05:58.031Z,85
2018-11-01T08:07:07.046Z,85
2018-11-01T08:08:15.936Z,85
2018-11-01T08:09:24.580Z,80
2018-11-01T08:10:33.212Z,80
2018-11-01T08:11:41.919Z,80
2018-11-01T08:12:50.494Z,75
2018-11-01T08:13:59.397Z,75
2018-11-01T08:15:08.033Z,75
2018-11-01T08:16:16.680Z,75
2018-11-01T08:17:25.318Z,75
2018-11-01T08:18:33.952Z,75
2018-11-01T08:19:42.662Z,75
2018-11-01T08:20:51.754Z,75
2018-11-01T08:22:00.302Z,80
2018-11-01T08:23:08.935Z,80
2018-11-01T08:24:17.578Z,80
2018-11-01T08:25:26.211Z,85
2018-11-01T08:26:34.857Z,85
2018-11-01T08:27:43.515Z,90
2018-11-01T08:28:52.481Z,90
2018-11-01T08:30:01.112Z,90
2018-11-01T08:31:09.760Z,95
2018-11-01T08:32:18.657Z,100
2018-11-01T08:33:27.294Z,100
2018-11-01T08:34:36.202Z,105
2018-11-01T08:35:45.097Z,105
2018-11-01T08:36:54.257Z,110
2018-11-01T08:38:03.158Z,110
2018-11-01T08:39:11.801Z,110
2018-11-01T08:40:20.442Z,110
2018-11-01T08:41:29.082Z,110
2018-11-01T08:42:37.722Z,110
2018-11-01T08:43:46.619Z,110
2018-11-01T08:44:55.269Z,115
2018-11-01T08:46:03.901Z,115
2018-11-01T08:47:12.547Z,115
2018-11-01T08:48:21.175Z,115
2018-11-01T08:49:29.936Z,125
2018-11-01T08:50:38.460Z,120
2018-11-01T08:51:47.101Z,120
2018-11-01T08:52:56.003Z,125
2018-11-01T08:54:04.647Z,130
2018-11-01T08:55:13.559Z,130
2018-11-01T08:56:22.212Z,130
2018-11-01T08:57:30.849Z,135
2018-11-01T08:58:40.012Z,135
2018-11-01T08:59:48.662Z,135
2018-11-01T09:00:57.556Z,135
2018-11-01T09:02:06.205Z,135
2018-11-01T09:03:14.835Z,135
2018-11-01T09:04:23.561Z,135
2018-11-01T09:05:32.115Z,135
2018-11-01T09:06:40.766Z,135
2018-11-01T09:07:50.054Z,140
2018-11-01T09:08:58.643Z,140
2018-11-01T09:10:07.550Z,140
2018-11-01T09:11:16.201Z,140
2018-11-01T09:12:24.838Z,140
2018-11-01T09:13:33.475Z,140
2018-11-01T09:14:42.223Z,140
2018-11-01T09:15:50.750Z,140
2018-11-01T09:16:59.400Z,140
2018-11-01T09:18:08.036Z,140
2018-11-01T09:19:16.742Z,140
2018-11-01T09:20:25.578Z,145
2018-11-01T09:21:34.224Z,145
2018-11-01T09:22:42.859Z,145
2018-11-01T09:23:51.503Z,140
2018-11-01T09:25:00.136Z,140
2018-11-01T09:26:08.786Z,140
2018-11-01T09:27:17.786Z,135
2018-11-01T09:28:26.347Z,135
2018-11-01T09:29:35.516Z,140
2018-11-01T09:30:44.158Z,140
2018-11-01T09:31:52.806Z,135
2018-11-01T09:33:01.446Z,135
2018-11-01T09:34:10.089Z,135
2018-11-01T09:35:18.724Z,135
2018-11-01T09:36:27.364Z,135
2018-11-01T09:37:36.006Z,135
2018-11-01T09:38:44.913Z,135
2018-11-01T09:39:53.549Z,135
2018-11-01T09:41:02.192Z,135
2018-11-01T09:42:10.833Z,135
2018-11-01T09:43:19.483Z,135
2018-11-01T09:44:28.123Z,140
2018-11-01T09:45:36.769Z,140
2018-11-01T09:46:45.772Z,140
2018-11-01T09:47:54.097Z,140
2018-11-01T09:49:02.954Z,140
2018-11-01T09:50:11.869Z,140
2018-11-01T09:51:20.508Z,145
2018-11-01T09:52:29.413Z,145
2018-11-01T09:53:38.058Z,145
2018-11-01T09:54:46.965Z,145
2018-11-01T09:55:56.508Z,145
2018-11-01T09:57:04.905Z,150
2018-11-01T09:58:13.548Z,150
2018-11-01T09:59:22.189Z,150
2018-11-01T10:00:30.830Z,155
2018-11-01T10:01:39.473Z,155
2018-11-01T10:02:48.115Z,155
2018-11-01T10:03:56.759Z,155
2018-11-01T10:05:05.404Z,155
2018-11-01T10:06:14.127Z,155
2018-11-01T10:07:22.686Z,155
2018-11-01T10:08:31.327Z,155
2018-11-01T10:09:39.970Z,155
2018-11-01T10:10:48.615Z,160
2018-11-01T10:11:57.254Z,160
2018-11-01T10:13:05.891Z,165
2018-11-01T10:14:14.529Z,160
2018-11-01T10:15:23.845Z,160
2018-11-01T10:16:32.571Z,160
2018-11-01T10:17:41.382Z,160
2018-11-01T10:18:49.649Z,155
2018-11-01T10:19:58.826Z,155
2018-11-01T10:21:07.476Z,155
2018-11-01T10:22:16.570Z,155
2018-11-01T10:23:25.128Z,150
2018-11-01T10:24:33.772Z,150
2018-11-01T10:25:42.412Z,150
2018-11-01T10:26:51.054Z,155
2018-11-01T10:27:59.691Z,155
2018-11-01T10:29:08.338Z,155
2018-11-01T10:30:16.993Z,155
2018-11-01T10:31:25.908Z,155
2018-11-01T10:32:34.558Z,160
2018-11-01T10:33:43.236Z,155
2018-11-01T10:34:51.843Z,155
2018-11-01T10:36:00.475Z,155
2018-11-01T10:37:09.125Z,150
2018-11-01T10:38:17.754Z,145
2018-11-01T10:39:26.408Z,145
2018-11-01T10:40:35.062Z,140
2018-11-01T10:41:43.975Z,145
2018-11-01T10:42:52.612Z,135
2018-11-01T10:44:01.259Z,135
2018-11-01T10:45:10.165Z,135
2018-11-01T10:46:19.077Z,135
2018-11-01T10:47:27.749Z,135
2018-11-01T10:48:36.355Z,135
2018-11-01T10:49:45.003Z,135
2018-11-01T10:50:53.643Z,135
2018-11-01T10:52:02.557Z,135
2018-11-01T10:53:11.190Z,135
2018-11-01T10:54:19.967Z,135
2018-11-01T10:55:28.473Z,135
2018-11-01T10:56:37.397Z,135
2018-11-01T10:57:46.024Z,135
2018-11-01T10:58:54.946Z,135
2018-11-01T11:00:04.646Z,135
2018-11-01T11:01:13.349Z,135
2018-11-01T11:02:21.842Z,135
2018-11-01T11:03:30.479Z,135
2018-11-01T11:04:39.119Z,135
2018-11-01T11:05:47.755Z,135
2018-11-01T11:06:56.417Z,135
2018-11-01T11:08:05.847Z,135
2018-11-01T11:09:14.490Z,135
2018-11-01T11:10:23.392Z,135
2018-11-01T11:11:32.044Z,140
2018-11-01T11:12:40.681Z,140
2018-11-01T11:13:49.594Z,140
2018-11-01T11:14:58.227Z,145
2018-11-01T11:16:06.877Z,145
2018-11-01T11:17:15.515Z,150
2018-11-01T11:18:24.164Z,150
2018-11-01T11:19:32.794Z,150
2018-11-01T11:20:41.742Z,155
2018-11-01T11:21:50.096Z,155
2018-11-01T11:22:58.739Z,160
2018-11-01T11:24:07.383Z,155
2018-11-01T11:25:16.016Z,150
2018-11-01T11:26:24.929Z,150
2018-11-01T11:27:33.570Z,150
2018-11-01T11:28:42.221Z,145
2018-11-01T11:29:50.879Z,145
2018-11-01T11:30:59.501Z,140
2018-11-01T11:32:08.146Z,140
2018-11-01T11:33:16.795Z,140
2018-11-01T11:34:25.435Z,135
2018-11-01T11:35:34.585Z,135
2018-11-01T11:36:43.214Z,145
2018-11-01T11:37:51.869Z,140
2018-11-01T11:39:00.594Z,135
2018-11-01T11:40:09.521Z,135
2018-11-01T11:41:18.160Z,135
2018-11-01T11:42:26.803Z,130
2018-11-01T11:43:35.450Z,130
2018-11-01T11:44:44.354Z,125
2018-11-01T11:45:52.997Z,120
2018-11-01T11:47:01.636Z,115
2018-11-01T11:48:10.284Z,110
2018-11-01T11:49:18.926Z,115
2018-11-01T11:50:27.569Z,110
2018-11-01T11:51:36.306Z,110
2018-11-01T11:52:44.866Z,105
2018-11-01T11:53:53.784Z,105
2018-11-01T11:55:02.692Z,105
2018-11-01T11:56:11.331Z,105
2018-11-01T11:57:20.395Z,105
2018-11-01T11:58:29.038Z,105
2018-11-01T11:59:37.687Z,105
2018-11-01T12:00:46.333Z,105
2018-11-01T12:01:55.287Z,105
2018-11-01T12:03:03.931Z,110
2018-11-01T12:04:12.573Z,110
2018-11-01T12:05:21.581Z,110
2018-11-01T12:06:30.864Z,105
2018-11-01T12:07:39.506Z,105
2018-11-01T12:08:48.149Z,105
2018-11-01T12:09:57.065Z,105
2018-11-01T12:11:05.700Z,105
2018-11-01T12:12:14.346Z,105
2018-11-01T12:13:22.987Z,110
2018-11-01T12:14:31.631Z,110
2018-11-01T12:15:40.270Z,105
2018-11-01T12:16:48.917Z,100
2018-11-01T12:17:57.556Z,100
2018-11-01T12:19:06.196Z,100
2018-11-01T12:20:14.842Z,100
2018-11-01T12:21:23.482Z,100
2018-11-01T12:22:32.761Z,100
2018-11-01T12:23:41.219Z,100
2018-11-01T12:24:49.867Z,95
2018-11-01T12:25:58.508Z,95
2018-11-01T12:27:07.153Z,90
2018-11-01T12:28:15.805Z,85
2018-11-01T12:29:24.435Z,85
2018-11-01T12:30:33.080Z,85
2018-11-01T12:31:41.722Z,85
2018-11-01T12:32:50.369Z,85
2018-11-01T12:33:59.009Z,85
2018-11-01T12:35:07.712Z,80
2018-11-01T12:36:16.378Z,75
2018-11-01T12:37:24.933Z,70
2018-11-01T12:38:33.580Z,70
2018-11-01T12:39:42.222Z,65
2018-11-01T12:40:50.864Z,65
2018-11-01T12:41:59.764Z,60
2018-11-01T12:43:08.411Z,60
2018-11-01T12:44:17.334Z,60
2018-11-01T12:45:25.970Z,55
2018-11-01T12:46:34.609Z,55
2018-11-01T12:47:43.264Z,55
2018-11-01T12:48:51.898Z,55
2018-11-01T12:50:00.668Z,55
2018-11-01T12:51:09.680Z,60
2018-11-01T12:52:18.325Z,60
2018-11-01T12:53:26.966Z,60
2018-11-01T12:54:35.614Z,60
2018-11-01T12:55:44.262Z,60
2018-11-01T12:56:52.898Z,65
2018-11-01T12:58:01.542Z,65
2018-11-01T12:59:10.183Z,60
2018-11-01T13:00:18.830Z,65
2018-11-01T13:01:27.470Z,55
2018-11-01T13:02:36.166Z,55
2018-11-01T13:03:44.755Z,55
2018-11-01T13:04:53.403Z,55
2018-11-01T13:06:02.042Z,55
2018-11-01T13:07:10.696Z,55
2018-11-01T13:08:19.600Z,55
2018-11-01T13:09:28.245Z,50
2018-11-01T13:10:36.917Z,45
2018-11-01T13:11:45.892Z,45
2018-11-01T13:12:54.800Z,45
2018-11-01T13:14:03.440Z,45
2018-11-01T13:15:12.087Z,45
2018-11-01T13:16:21.270Z,45
2018-11-01T13:17:30.183Z,50
2018-11-01T13:18:39.108Z,50
2018-11-01T13:19:47.756Z,50
2018-11-01T13:20:56.660Z,50
2018-11-01T13:22:05.302Z,50
2018-11-01T13:23:13.941Z,50
2018-11-01T13:24:22.857Z,45
2018-11-01T13:25:31.498Z,45
2018-11-01T13:26:40.146Z,45
2018-11-01T13:27:48.778Z,45
2018-11-01T13:28:57.430Z,40
2018-11-01T13:30:06.343Z,40
2018-11-01T13:31:14.988Z,40
2018-11-01T13:32:23.635Z,40
2018-11-01T13:33:32.538Z,40
2018-11-01T13:34:41.531Z,40
2018-11-01T13:35:50.143Z,40
2018-11-01T13:36:59.328Z,40
2018-11-01T13:38:07.960Z,40
2018-11-01T13:39:17.217Z,40
2018-11-01T13:40:26.238Z,40
2018-11-01T13:41:34.517Z,40
2018-11-01T13:42:43.136Z,40
2018-11-01T13:43:51.775Z,40
2018-11-01T13:45:00.413Z,40
2018-11-01T13:46:09.063Z,40
2018-11-01T13:47:18.213Z,40
2018-11-01T13:48:27.713Z,40
2018-11-01T13:49:36.973Z,40
2018-11-01T13:50:45.611Z,40
2018-11-01T13:51:54.525Z,40
2018-11-01T13:53:03.425Z,35
2018-11-01T13:54:12.074Z,35
2018-11-01T13:55:20.706Z,30
2018-11-01T13:56:29.814Z,30
2018-11-01T13:57:38.354Z,25
2018-11-01T13:58:47.004Z,25
2018-11-01T13:59:55.635Z,25
2018-11-01T14:01:04.285Z,25
2018-11-01T14:02:13.448Z,30
2018-11-01T14:03:22.097Z,30
2018-11-01T14:04:30.728Z,30
2018-11-01T14:05:39.470Z,30
2018-11-01T14:06:48.020Z,30
2018-11-01T14:07:56.671Z,30
2018-11-01T14:09:05.315Z,30
2018-11-01T14:10:13.950Z,30
2018-11-01T14:11:22.598Z,30
2018-11-01T14:12:31.238Z,25
2018-11-01T14:13:40.016Z,25
2018-11-01T14:14:50.436Z,25
2018-11-01T14:15:58.775Z,25
2018-11-01T14:17:07.414Z,25
2018-11-01T14:18:16.340Z,25
2018-11-01T14:19:24.972Z,25
2018-11-01T14:20:33.618Z,25
2018-11-01T14:21:42.525Z,25
2018-11-01T14:22:51.175Z,25
2018-11-01T14:24:00.344Z,25
2018-11-01T14:25:08.981Z,25
2018-11-01T14:26:17.624Z,25
2018-11-01T14:27:26.266Z,25
2018-11-01T14:28:34.904Z,25
2018-11-01T14:29:43.547Z,25
2018-11-01T14:30:52.245Z,25
2018-11-01T14:32:01.097Z,20
2018-11-01T14:33:09.734Z,20
2018-11-01T14:34:18.376Z,20
2018-11-01T14:35:27.019Z,20
2018-11-01T14:36:35.662Z,20
2018-11-01T14:37:44.383Z,20
2018-11-01T14:38:52.942Z,20
2018-11-01T14:40:02.114Z,20
2018-11-01T14:41:10.760Z,20
2018-11-01T14:42:19.398Z,20
2018-11-01T14:43:28.042Z,20
2018-11-01T14:44:36.754Z,15
2018-11-01T14:45:45.757Z,15
2018-11-01T14:46:54.409Z,15
2018-11-01T14:48:03.046Z,15
2018-11-01T14:49:11.691Z,15
2018-11-01T14:50:20.323Z,15
2018-11-01T14:51:28.972Z,10
2018-11-01T14:52:38.007Z,10
2018-11-01T14:53:46.445Z,10
2018-11-01T14:54:55.682Z,10
2018-11-01T14:56:04.686Z,10
2018-11-01T14:57:13.662Z,10
2018-11-01T14:58:22.249Z,10
2018-11-01T14:59:33.342Z,10
2018-11-01T15:00:40.352Z,10
2018-11-01T15:01:49.005Z,10
2018-11-01T15:02:57.913Z,10
2018-11-01T15:04:06.828Z,10
2018-11-01T15:05:15.466Z,10
2018-11-01T15:06:24.137Z,10
2018-11-01T15:07:33.057Z,5
2018-11-01T15:08:41.702Z,5
2018-11-01T15:09:50.411Z,5
2018-11-01T15:10:59.326Z,5
2018-11-01T15:12:07.975Z,5
2018-11-01T15:13:16.757Z,5
2018-11-01T15:14:25.312Z,5
2018-11-01T15:15:34.015Z,5
2018-11-01T15:16:43.220Z,5
2018-11-01T15:17:51.867Z,5
2018-11-01T15:19:00.580Z,5
2018-11-01T15:20:09.152Z,5
2018-11-01T15:21:17.792Z,5
2018-11-01T15:22:26.434Z,5
2018-11-01T15:23:35.080Z,5
2018-11-01T15:24:44.048Z,5
2018-11-01T15:25:52.731Z,5
2018-11-01T15:27:01.326Z,0
2018-11-01T15:28:09.979Z,0
2018-11-01T15:29:18.612Z,0
2018-11-01T15:30:27.258Z,0
2018-11-01T15:31:35.889Z,0
2018-11-01T15:32:44.804Z,0
2018-11-01T15:33:53.501Z,0
2018-11-01T15:35:02.087Z,0
2018-11-01T15:36:10.718Z,0
2018-11-01T15:37:19.815Z,0
2018-11-01T15:38:28.422Z,0
2018-11-01T15:39:37.111Z,0
2018-11-01T15:40:45.702Z,0
2018-11-01T15:41:54.334Z,0
2018-11-01T15:43:03.003Z,0
2018-11-01T15:44:11.697Z,0
2018-11-01T15:45:20.420Z,0
2018-11-01T15:46:29.058Z,0
2018-11-01T15:47:38.337Z,0
2018-11-01T15:48:46.973Z,0
2018-11-01T15:49:55.779Z,0
2018-11-01T15:51:04.410Z,0
2018-11-01T15:52:13.052Z,0
2018-11-01T15:53:21.690Z,0
2018-11-01T15:54:30.343Z,0
2018-11-01T15:55:39.533Z,0
2018-11-01T15:56:48.187Z,0
2018-11-01T15:57:57.097Z,0
2018-11-01T15:59:06.019Z,0
2018-11-01T16:00:14.955Z,0
2018-11-01T16:01:23.861Z,0
2018-11-01T16:02:32.553Z,0
2018-11-01T16:03:41.184Z,0
2018-11-01T16:04:49.785Z,0
2018-11-01T16:05:58.689Z,0
2018-11-01T16:07:07.333Z,0
2018-11-01T16:08:15.971Z,0
2018-11-01T16:09:24.895Z,0
2018-11-01T16:10:33.796Z,0
2018-11-01T16:11:42.713Z,0
2018-11-01T16:12:51.341Z,0
2018-11-01T16:14:00.523Z,0
2018-11-01T16:15:09.182Z,0
2018-11-01T16:16:18.100Z,0
2018-11-01T16:17:26.742Z,0
2018-11-01T16:18:35.650Z,0
2018-11-01T16:19:44.492Z,0
2018-11-01T16:20:53.537Z,0
2018-11-01T16:22:02.250Z,0
2018-11-01T16:23:11.472Z,0
2018-11-01T16:24:20.097Z,0
2018-11-01T16:25:29.432Z,0
2018-11-01T16:26:38.515Z,0
2018-11-01T16:27:47.990Z,0
2018-11-01T16:28:56.629Z,0